sensor_id;sensor_type;location;lat;lon;timestamp;P1;durP1;ratioP1;P2;durP2;ratioP2
1879;SDS011;49285;49.002;8.390;2023-02-15T00:01:49;50.10;;;27.80;;
1879;SDS011;49285;49.002;8.390;2023-02-15T00:04:15;49.47;;;25.93;;
1879;SDS011;49285;49.002;8.390;2023-02-15T00:06:43;46.70;;;25.07;;
1879;SDS011;49285;49.002;8.390;2023-02-15T00:09:09;37.33;;;22.50;;
1879;SDS011;49285;49.002;8.390;2023-02-15T00:11:35;47.47;;;23.97;;
1879;SDS011;49285;49.002;8.390;2023-02-15T00:14:20;45.30;;;25.00;;
1879;SDS011;49285;49.002;8.390;2023-02-15T00:16:47;48.87;;;26.30;;
1879;SDS011;49285;49.002;8.390;2023-02-15T00:19:15;50.33;;;25.13;;
1879;SDS011;49285;49.002;8.390;2023-02-15T00:21:41;46.13;;;25.63;;
1879;SDS011;49285;49.002;8.390;2023-02-15T00:24:09;44.17;;;23.97;;
1879;SDS011;49285;49.002;8.390;2023-02-15T00:26:37;45.03;;;23.77;;
1879;SDS011;49285;49.002;8.390;2023-02-15T00:29:04;37.30;;;22.50;;
1879;SDS011;49285;49.002;8.390;2023-02-15T00:31:31;41.33;;;24.20;;
1879;SDS011;49285;49.002;8.390;2023-02-15T00:34:07;46.67;;;24.83;;
1879;SDS011;49285;49.002;8.390;2023-02-15T00:36:36;48.43;;;25.13;;
1879;SDS011;49285;49.002;8.390;2023-02-15T00:39:02;42.83;;;24.30;;
1879;SDS011;49285;49.002;8.390;2023-02-15T00:41:29;55.83;;;24.70;;
1879;SDS011;49285;49.002;8.390;2023-02-15T00:43:55;45.50;;;26.90;;
1879;SDS011;49285;49.002;8.390;2023-02-15T00:46:21;45.50;;;24.30;;
1879;SDS011;49285;49.002;8.390;2023-02-15T00:48:46;50.13;;;27.07;;
1879;SDS011;49285;49.002;8.390;2023-02-15T00:51:12;45.73;;;22.30;;
1879;SDS011;49285;49.002;8.390;2023-02-15T00:53:38;43.77;;;23.87;;
1879;SDS011;49285;49.002;8.390;2023-02-15T00:56:03;57.80;;;24.53;;
1879;SDS011;49285;49.002;8.390;2023-02-15T00:58:29;49.00;;;23.80;;
1879;SDS011;49285;49.002;8.390;2023-02-15T01:00:54;46.97;;;23.70;;
1879;SDS011;49285;49.002;8.390;2023-02-15T01:03:26;47.93;;;24.77;;
1879;SDS011;49285;49.002;8.390;2023-02-15T01:05:52;44.23;;;24.23;;
1879;SDS011;49285;49.002;8.390;2023-02-15T01:08:17;46.60;;;25.57;;
1879;SDS011;49285;49.002;8.390;2023-02-15T01:10:43;45.13;;;23.30;;
1879;SDS011;49285;49.002;8.390;2023-02-15T01:13:10;45.43;;;24.97;;
1879;SDS011;49285;49.002;8.390;2023-02-15T01:15:36;42.40;;;22.50;;
1879;SDS011;49285;49.002;8.390;2023-02-15T01:18:01;42.87;;;24.37;;
1879;SDS011;49285;49.002;8.390;2023-02-15T01:20:28;43.10;;;23.97;;
1879;SDS011;49285;49.002;8.390;2023-02-15T01:22:54;36.20;;;21.50;;
1879;SDS011;49285;49.002;8.390;2023-02-15T01:25:22;39.50;;;21.73;;
1879;SDS011;49285;49.002;8.390;2023-02-15T01:27:48;39.90;;;20.77;;
1879;SDS011;49285;49.002;8.390;2023-02-15T01:30:14;40.33;;;22.40;;
1879;SDS011;49285;49.002;8.390;2023-02-15T01:32:40;39.67;;;23.00;;
1879;SDS011;49285;49.002;8.390;2023-02-15T01:35:07;36.23;;;21.27;;
1879;SDS011;49285;49.002;8.390;2023-02-15T01:37:33;41.57;;;22.10;;
1879;SDS011;49285;49.002;8.390;2023-02-15T01:39:59;40.13;;;22.07;;
1879;SDS011;49285;49.002;8.390;2023-02-15T01:42:26;40.03;;;21.50;;
1879;SDS011;49285;49.002;8.390;2023-02-15T01:44:54;39.83;;;20.20;;
1879;SDS011;49285;49.002;8.390;2023-02-15T01:47:36;34.27;;;19.10;;
1879;SDS011;49285;49.002;8.390;2023-02-15T01:52:40;34.10;;;19.63;;
1879;SDS011;49285;49.002;8.390;2023-02-15T01:55:11;33.23;;;20.33;;
1879;SDS011;49285;49.002;8.390;2023-02-15T01:57:38;31.83;;;18.73;;
1879;SDS011;49285;49.002;8.390;2023-02-15T02:00:04;30.53;;;19.10;;
1879;SDS011;49285;49.002;8.390;2023-02-15T02:02:32;42.57;;;20.93;;
1879;SDS011;49285;49.002;8.390;2023-02-15T02:04:58;35.33;;;20.73;;
1879;SDS011;49285;49.002;8.390;2023-02-15T02:07:28;38.20;;;19.20;;
1879;SDS011;49285;49.002;8.390;2023-02-15T02:09:57;39.77;;;22.30;;
1879;SDS011;49285;49.002;8.390;2023-02-15T02:12:23;38.03;;;19.80;;
1879;SDS011;49285;49.002;8.390;2023-02-15T02:14:49;40.40;;;20.70;;
1879;SDS011;49285;49.002;8.390;2023-02-15T02:17:37;38.03;;;20.80;;
1879;SDS011;49285;49.002;8.390;2023-02-15T02:20:24;32.93;;;19.07;;
1879;SDS011;49285;49.002;8.390;2023-02-15T02:25:56;31.70;;;19.37;;
1879;SDS011;49285;49.002;8.390;2023-02-15T02:36:53;29.03;;;19.17;;
1879;SDS011;49285;49.002;8.390;2023-02-15T02:39:34;32.43;;;19.17;;
1879;SDS011;49285;49.002;8.390;2023-02-15T02:44:42;32.63;;;17.90;;
1879;SDS011;49285;49.002;8.390;2023-02-15T02:49:52;35.30;;;19.53;;
1879;SDS011;49285;49.002;8.390;2023-02-15T02:52:40;35.63;;;20.57;;
1879;SDS011;49285;49.002;8.390;2023-02-15T02:55:17;33.47;;;19.30;;
1879;SDS011;49285;49.002;8.390;2023-02-15T02:57:51;35.93;;;18.40;;
1879;SDS011;49285;49.002;8.390;2023-02-15T03:00:25;28.87;;;17.60;;
1879;SDS011;49285;49.002;8.390;2023-02-15T03:02:56;31.43;;;18.20;;
1879;SDS011;49285;49.002;8.390;2023-02-15T03:05:30;37.10;;;22.27;;
1879;SDS011;49285;49.002;8.390;2023-02-15T03:07:58;31.60;;;17.67;;
1879;SDS011;49285;49.002;8.390;2023-02-15T03:10:30;34.80;;;19.13;;
1879;SDS011;49285;49.002;8.390;2023-02-15T03:12:58;31.27;;;18.97;;
1879;SDS011;49285;49.002;8.390;2023-02-15T03:15:31;44.33;;;19.43;;
1879;SDS011;49285;49.002;8.390;2023-02-15T03:18:20;39.27;;;20.90;;
1879;SDS011;49285;49.002;8.390;2023-02-15T03:20:50;35.93;;;20.03;;
1879;SDS011;49285;49.002;8.390;2023-02-15T03:23:18;37.83;;;19.90;;
1879;SDS011;49285;49.002;8.390;2023-02-15T03:25:48;35.20;;;21.17;;
1879;SDS011;49285;49.002;8.390;2023-02-15T03:28:19;32.30;;;19.50;;
1879;SDS011;49285;49.002;8.390;2023-02-15T03:30:51;41.00;;;23.13;;
1879;SDS011;49285;49.002;8.390;2023-02-15T03:33:20;35.50;;;20.60;;
1879;SDS011;49285;49.002;8.390;2023-02-15T03:38:51;33.40;;;19.57;;
1879;SDS011;49285;49.002;8.390;2023-02-15T03:41:24;35.60;;;18.27;;
1879;SDS011;49285;49.002;8.390;2023-02-15T03:44:05;30.70;;;19.13;;
1879;SDS011;49285;49.002;8.390;2023-02-15T03:46:46;36.90;;;20.27;;
1879;SDS011;49285;49.002;8.390;2023-02-15T03:49:24;34.60;;;18.80;;
1879;SDS011;49285;49.002;8.390;2023-02-15T03:52:02;37.80;;;20.77;;
1879;SDS011;49285;49.002;8.390;2023-02-15T03:54:30;37.40;;;20.30;;
1879;SDS011;49285;49.002;8.390;2023-02-15T03:57:09;34.70;;;18.93;;
1879;SDS011;49285;49.002;8.390;2023-02-15T03:59:57;31.73;;;18.27;;
1879;SDS011;49285;49.002;8.390;2023-02-15T04:03:04;30.70;;;18.80;;
1879;SDS011;49285;49.002;8.390;2023-02-15T04:05:52;33.83;;;18.87;;
1879;SDS011;49285;49.002;8.390;2023-02-15T04:08:18;30.43;;;17.87;;
1879;SDS011;49285;49.002;8.390;2023-02-15T04:10:43;35.73;;;18.73;;
1879;SDS011;49285;49.002;8.390;2023-02-15T04:13:19;38.40;;;19.70;;
1879;SDS011;49285;49.002;8.390;2023-02-15T04:15:46;32.57;;;18.57;;
1879;SDS011;49285;49.002;8.390;2023-02-15T04:18:33;32.03;;;18.00;;
1879;SDS011;49285;49.002;8.390;2023-02-15T04:21:26;31.23;;;17.70;;
1879;SDS011;49285;49.002;8.390;2023-02-15T04:24:12;32.63;;;18.53;;
1879;SDS011;49285;49.002;8.390;2023-02-15T04:26:56;32.07;;;18.10;;
1879;SDS011;49285;49.002;8.390;2023-02-15T04:29:23;36.40;;;20.63;;
1879;SDS011;49285;49.002;8.390;2023-02-15T04:31:50;31.83;;;19.27;;
1879;SDS011;49285;49.002;8.390;2023-02-15T04:34:17;30.50;;;19.10;;
1879;SDS011;49285;49.002;8.390;2023-02-15T04:36:42;28.83;;;19.00;;
1879;SDS011;49285;49.002;8.390;2023-02-15T04:39:09;34.97;;;19.67;;
1879;SDS011;49285;49.002;8.390;2023-02-15T04:41:37;33.97;;;19.53;;
1879;SDS011;49285;49.002;8.390;2023-02-15T04:44:02;32.03;;;18.73;;
1879;SDS011;49285;49.002;8.390;2023-02-15T04:46:28;29.80;;;19.43;;
1879;SDS011;49285;49.002;8.390;2023-02-15T04:48:54;27.77;;;18.37;;
1879;SDS011;49285;49.002;8.390;2023-02-15T04:51:20;32.77;;;19.53;;
1879;SDS011;49285;49.002;8.390;2023-02-15T04:53:46;28.37;;;17.10;;
1879;SDS011;49285;49.002;8.390;2023-02-15T04:56:12;31.63;;;17.27;;
1879;SDS011;49285;49.002;8.390;2023-02-15T04:58:37;34.13;;;20.50;;
1879;SDS011;49285;49.002;8.390;2023-02-15T05:01:05;29.80;;;18.10;;
1879;SDS011;49285;49.002;8.390;2023-02-15T05:03:32;30.40;;;18.80;;
1879;SDS011;49285;49.002;8.390;2023-02-15T05:05:57;32.17;;;19.30;;
1879;SDS011;49285;49.002;8.390;2023-02-15T05:08:23;29.13;;;18.00;;
1879;SDS011;49285;49.002;8.390;2023-02-15T05:10:48;36.63;;;19.77;;
1879;SDS011;49285;49.002;8.390;2023-02-15T05:13:14;30.43;;;18.50;;
1879;SDS011;49285;49.002;8.390;2023-02-15T05:15:40;29.97;;;17.87;;
1879;SDS011;49285;49.002;8.390;2023-02-15T05:18:05;31.43;;;17.50;;
1879;SDS011;49285;49.002;8.390;2023-02-15T05:20:32;32.77;;;18.00;;
1879;SDS011;49285;49.002;8.390;2023-02-15T05:22:58;25.57;;;16.27;;
1879;SDS011;49285;49.002;8.390;2023-02-15T05:25:24;25.27;;;17.60;;
1879;SDS011;49285;49.002;8.390;2023-02-15T05:28:09;26.73;;;16.37;;
1879;SDS011;49285;49.002;8.390;2023-02-15T05:30:44;31.37;;;17.40;;
1879;SDS011;49285;49.002;8.390;2023-02-15T05:33:10;29.63;;;19.20;;
1879;SDS011;49285;49.002;8.390;2023-02-15T05:35:36;35.37;;;17.50;;
1879;SDS011;49285;49.002;8.390;2023-02-15T05:38:01;30.03;;;17.70;;
1879;SDS011;49285;49.002;8.390;2023-02-15T05:40:27;28.80;;;18.10;;
1879;SDS011;49285;49.002;8.390;2023-02-15T05:42:52;30.50;;;20.00;;
1879;SDS011;49285;49.002;8.390;2023-02-15T05:45:18;33.37;;;18.40;;
1879;SDS011;49285;49.002;8.390;2023-02-15T05:47:44;30.63;;;17.97;;
1879;SDS011;49285;49.002;8.390;2023-02-15T05:50:09;31.20;;;18.23;;
1879;SDS011;49285;49.002;8.390;2023-02-15T05:52:36;30.63;;;19.00;;
1879;SDS011;49285;49.002;8.390;2023-02-15T05:55:02;29.77;;;17.47;;
1879;SDS011;49285;49.002;8.390;2023-02-15T05:57:29;34.67;;;18.13;;
1879;SDS011;49285;49.002;8.390;2023-02-15T05:59:55;34.70;;;18.87;;
1879;SDS011;49285;49.002;8.390;2023-02-15T06:02:20;32.87;;;18.30;;
1879;SDS011;49285;49.002;8.390;2023-02-15T06:04:46;32.60;;;17.83;;
1879;SDS011;49285;49.002;8.390;2023-02-15T06:07:11;37.27;;;19.50;;
1879;SDS011;49285;49.002;8.390;2023-02-15T06:09:37;35.43;;;19.20;;
1879;SDS011;49285;49.002;8.390;2023-02-15T06:12:03;30.63;;;19.13;;
1879;SDS011;49285;49.002;8.390;2023-02-15T06:14:28;32.73;;;17.20;;
1879;SDS011;49285;49.002;8.390;2023-02-15T06:16:54;32.23;;;17.13;;
1879;SDS011;49285;49.002;8.390;2023-02-15T06:19:19;33.53;;;17.33;;
1879;SDS011;49285;49.002;8.390;2023-02-15T06:21:46;33.77;;;16.93;;
1879;SDS011;49285;49.002;8.390;2023-02-15T06:24:12;30.67;;;16.20;;
1879;SDS011;49285;49.002;8.390;2023-02-15T06:26:37;27.40;;;17.00;;
1879;SDS011;49285;49.002;8.390;2023-02-15T06:29:03;31.87;;;17.30;;
1879;SDS011;49285;49.002;8.390;2023-02-15T06:31:29;29.93;;;15.43;;
1879;SDS011;49285;49.002;8.390;2023-02-15T06:33:54;29.53;;;16.07;;
1879;SDS011;49285;49.002;8.390;2023-02-15T06:36:26;27.40;;;15.73;;
1879;SDS011;49285;49.002;8.390;2023-02-15T06:38:52;32.40;;;17.50;;
1879;SDS011;49285;49.002;8.390;2023-02-15T06:41:18;30.23;;;15.27;;
1879;SDS011;49285;49.002;8.390;2023-02-15T06:43:43;38.57;;;17.37;;
1879;SDS011;49285;49.002;8.390;2023-02-15T06:46:09;30.37;;;18.30;;
1879;SDS011;49285;49.002;8.390;2023-02-15T06:48:34;37.33;;;14.53;;
1879;SDS011;49285;49.002;8.390;2023-02-15T06:51:00;31.97;;;14.87;;
1879;SDS011;49285;49.002;8.390;2023-02-15T06:53:26;26.47;;;14.57;;
1879;SDS011;49285;49.002;8.390;2023-02-15T06:55:51;32.80;;;15.50;;
1879;SDS011;49285;49.002;8.390;2023-02-15T06:58:17;30.43;;;14.57;;
1879;SDS011;49285;49.002;8.390;2023-02-15T07:00:43;29.80;;;14.93;;
1879;SDS011;49285;49.002;8.390;2023-02-15T07:03:08;30.00;;;17.10;;
1879;SDS011;49285;49.002;8.390;2023-02-15T07:05:34;28.03;;;14.93;;
1879;SDS011;49285;49.002;8.390;2023-02-15T07:08:00;28.87;;;13.97;;
1879;SDS011;49285;49.002;8.390;2023-02-15T07:10:26;26.97;;;13.60;;
1879;SDS011;49285;49.002;8.390;2023-02-15T07:12:52;24.60;;;13.20;;
1879;SDS011;49285;49.002;8.390;2023-02-15T07:15:18;25.50;;;13.63;;
1879;SDS011;49285;49.002;8.390;2023-02-15T07:17:48;28.80;;;14.97;;
1879;SDS011;49285;49.002;8.390;2023-02-15T07:20:17;28.83;;;15.23;;
1879;SDS011;49285;49.002;8.390;2023-02-15T07:22:47;23.67;;;14.00;;
1879;SDS011;49285;49.002;8.390;2023-02-15T07:25:13;32.37;;;17.20;;
1879;SDS011;49285;49.002;8.390;2023-02-15T07:27:39;27.73;;;17.30;;
1879;SDS011;49285;49.002;8.390;2023-02-15T07:30:06;29.73;;;16.07;;
1879;SDS011;49285;49.002;8.390;2023-02-15T07:32:33;30.47;;;18.00;;
1879;SDS011;49285;49.002;8.390;2023-02-15T07:34:59;33.47;;;18.07;;
1879;SDS011;49285;49.002;8.390;2023-02-15T07:37:25;35.67;;;17.50;;
1879;SDS011;49285;49.002;8.390;2023-02-15T07:39:51;37.80;;;17.60;;
1879;SDS011;49285;49.002;8.390;2023-02-15T07:42:17;34.60;;;17.17;;
1879;SDS011;49285;49.002;8.390;2023-02-15T07:44:44;31.30;;;17.33;;
1879;SDS011;49285;49.002;8.390;2023-02-15T07:47:10;31.97;;;18.60;;
1879;SDS011;49285;49.002;8.390;2023-02-15T07:49:36;39.77;;;17.67;;
1879;SDS011;49285;49.002;8.390;2023-02-15T07:52:03;42.70;;;18.60;;
1879;SDS011;49285;49.002;8.390;2023-02-15T07:54:28;32.50;;;17.47;;
1879;SDS011;49285;49.002;8.390;2023-02-15T07:56:54;32.63;;;16.20;;
1879;SDS011;49285;49.002;8.390;2023-02-15T07:59:20;32.13;;;16.47;;
1879;SDS011;49285;49.002;8.390;2023-02-15T08:01:45;29.97;;;16.93;;
1879;SDS011;49285;49.002;8.390;2023-02-15T08:04:11;31.60;;;16.37;;
1879;SDS011;49285;49.002;8.390;2023-02-15T08:06:36;28.13;;;15.17;;
1879;SDS011;49285;49.002;8.390;2023-02-15T08:09:07;30.53;;;14.90;;
1879;SDS011;49285;49.002;8.390;2023-02-15T08:11:34;28.20;;;15.67;;
1879;SDS011;49285;49.002;8.390;2023-02-15T08:19:11;30.10;;;15.60;;
1879;SDS011;49285;49.002;8.390;2023-02-15T08:21:45;32.97;;;14.93;;
1879;SDS011;49285;49.002;8.390;2023-02-15T08:24:16;36.20;;;16.27;;
1879;SDS011;49285;49.002;8.390;2023-02-15T08:26:43;27.90;;;15.30;;
1879;SDS011;49285;49.002;8.390;2023-02-15T08:29:11;23.87;;;14.13;;
1879;SDS011;49285;49.002;8.390;2023-02-15T08:31:38;31.50;;;15.27;;
1879;SDS011;49285;49.002;8.390;2023-02-15T08:34:05;29.67;;;15.07;;
1879;SDS011;49285;49.002;8.390;2023-02-15T08:36:32;34.93;;;16.90;;
1879;SDS011;49285;49.002;8.390;2023-02-15T08:38:58;31.03;;;15.43;;
1879;SDS011;49285;49.002;8.390;2023-02-15T08:41:26;26.47;;;15.57;;
1879;SDS011;49285;49.002;8.390;2023-02-15T08:43:53;26.70;;;14.50;;
1879;SDS011;49285;49.002;8.390;2023-02-15T08:46:21;22.37;;;13.73;;
1879;SDS011;49285;49.002;8.390;2023-02-15T08:48:48;26.70;;;15.73;;
1879;SDS011;49285;49.002;8.390;2023-02-15T08:51:21;25.50;;;15.47;;
1879;SDS011;49285;49.002;8.390;2023-02-15T08:53:49;29.70;;;15.27;;
1879;SDS011;49285;49.002;8.390;2023-02-15T08:56:18;30.50;;;17.20;;
1879;SDS011;49285;49.002;8.390;2023-02-15T08:58:45;30.33;;;17.30;;
1879;SDS011;49285;49.002;8.390;2023-02-15T09:01:11;26.23;;;14.47;;
1879;SDS011;49285;49.002;8.390;2023-02-15T09:03:38;29.40;;;16.00;;
1879;SDS011;49285;49.002;8.390;2023-02-15T09:06:04;26.07;;;13.80;;
1879;SDS011;49285;49.002;8.390;2023-02-15T09:08:31;27.07;;;15.77;;
1879;SDS011;49285;49.002;8.390;2023-02-15T09:11:10;32.37;;;16.60;;
1879;SDS011;49285;49.002;8.390;2023-02-15T09:13:48;37.10;;;17.80;;
1879;SDS011;49285;49.002;8.390;2023-02-15T09:16:21;31.30;;;17.70;;
1879;SDS011;49285;49.002;8.390;2023-02-15T09:18:48;26.50;;;16.93;;
1879;SDS011;49285;49.002;8.390;2023-02-15T09:21:16;34.90;;;17.63;;
1879;SDS011;49285;49.002;8.390;2023-02-15T09:23:44;29.93;;;17.60;;
1879;SDS011;49285;49.002;8.390;2023-02-15T09:26:12;37.67;;;17.43;;
1879;SDS011;49285;49.002;8.390;2023-02-15T09:28:40;34.90;;;18.00;;
1879;SDS011;49285;49.002;8.390;2023-02-15T09:33:40;35.67;;;18.77;;
1879;SDS011;49285;49.002;8.390;2023-02-15T09:36:16;33.70;;;19.00;;
1879;SDS011;49285;49.002;8.390;2023-02-15T09:38:47;32.70;;;17.00;;
1879;SDS011;49285;49.002;8.390;2023-02-15T09:47:16;33.40;;;19.37;;
1879;SDS011;49285;49.002;8.390;2023-02-15T10:01:04;31.67;;;17.90;;
1879;SDS011;49285;49.002;8.390;2023-02-15T10:03:47;33.37;;;18.50;;
1879;SDS011;49285;49.002;8.390;2023-02-15T10:09:13;36.23;;;19.40;;
1879;SDS011;49285;49.002;8.390;2023-02-15T10:25:51;33.13;;;18.60;;
1879;SDS011;49285;49.002;8.390;2023-02-15T10:31:56;37.80;;;19.70;;
1879;SDS011;49285;49.002;8.390;2023-02-15T10:48:00;34.40;;;17.50;;
1879;SDS011;49285;49.002;8.390;2023-02-15T10:50:46;29.73;;;16.70;;
1879;SDS011;49285;49.002;8.390;2023-02-15T11:01:13;38.83;;;17.10;;
1879;SDS011;49285;49.002;8.390;2023-02-15T11:06:51;32.73;;;17.37;;
1879;SDS011;49285;49.002;8.390;2023-02-15T11:09:21;32.87;;;18.67;;
1879;SDS011;49285;49.002;8.390;2023-02-15T11:11:49;28.13;;;16.27;;
1879;SDS011;49285;49.002;8.390;2023-02-15T11:17:16;34.23;;;19.90;;
1879;SDS011;49285;49.002;8.390;2023-02-15T11:22:36;31.80;;;17.13;;
1879;SDS011;49285;49.002;8.390;2023-02-15T11:25:05;29.30;;;17.43;;
1879;SDS011;49285;49.002;8.390;2023-02-15T11:27:42;33.07;;;17.93;;
1879;SDS011;49285;49.002;8.390;2023-02-15T11:32:40;32.03;;;17.13;;
1879;SDS011;49285;49.002;8.390;2023-02-15T11:35:18;26.97;;;16.60;;
1879;SDS011;49285;49.002;8.390;2023-02-15T11:41:07;43.27;;;18.17;;
1879;SDS011;49285;49.002;8.390;2023-02-15T11:43:43;32.20;;;17.90;;
1879;SDS011;49285;49.002;8.390;2023-02-15T11:46:21;31.40;;;17.10;;
1879;SDS011;49285;49.002;8.390;2023-02-15T11:48:46;30.17;;;17.87;;
1879;SDS011;49285;49.002;8.390;2023-02-15T11:51:13;29.30;;;17.37;;
1879;SDS011;49285;49.002;8.390;2023-02-15T11:53:41;28.50;;;16.10;;
1879;SDS011;49285;49.002;8.390;2023-02-15T11:56:13;25.30;;;15.93;;
1879;SDS011;49285;49.002;8.390;2023-02-15T11:58:48;29.40;;;16.40;;
1879;SDS011;49285;49.002;8.390;2023-02-15T12:01:24;25.80;;;15.73;;
1879;SDS011;49285;49.002;8.390;2023-02-15T12:03:59;23.00;;;15.10;;
1879;SDS011;49285;49.002;8.390;2023-02-15T12:06:33;26.07;;;16.87;;
1879;SDS011;49285;49.002;8.390;2023-02-15T12:11:47;26.23;;;16.40;;
1879;SDS011;49285;49.002;8.390;2023-02-15T12:14:13;27.90;;;17.93;;
1879;SDS011;49285;49.002;8.390;2023-02-15T12:16:45;34.57;;;18.90;;
1879;SDS011;49285;49.002;8.390;2023-02-15T12:22:18;30.77;;;16.13;;
1879;SDS011;49285;49.002;8.390;2023-02-15T12:24:50;26.93;;;15.97;;
1879;SDS011;49285;49.002;8.390;2023-02-15T12:27:40;29.20;;;16.57;;
1879;SDS011;49285;49.002;8.390;2023-02-15T12:30:16;27.03;;;16.50;;
1879;SDS011;49285;49.002;8.390;2023-02-15T12:32:53;25.37;;;16.23;;
1879;SDS011;49285;49.002;8.390;2023-02-15T12:35:28;27.30;;;17.37;;
1879;SDS011;49285;49.002;8.390;2023-02-15T12:38:00;25.67;;;16.50;;
1879;SDS011;49285;49.002;8.390;2023-02-15T12:40:35;24.80;;;16.30;;
1879;SDS011;49285;49.002;8.390;2023-02-15T12:43:02;24.57;;;16.03;;
1879;SDS011;49285;49.002;8.390;2023-02-15T12:45:34;24.37;;;17.30;;
1879;SDS011;49285;49.002;8.390;2023-02-15T12:50:41;24.33;;;16.23;;
1879;SDS011;49285;49.002;8.390;2023-02-15T12:56:02;23.23;;;15.07;;
1879;SDS011;49285;49.002;8.390;2023-02-15T12:58:29;24.00;;;16.00;;
1879;SDS011;49285;49.002;8.390;2023-02-15T13:03:33;22.80;;;16.50;;
1879;SDS011;49285;49.002;8.390;2023-02-15T13:06:03;26.47;;;18.00;;
1879;SDS011;49285;49.002;8.390;2023-02-15T13:08:33;20.93;;;15.63;;
1879;SDS011;49285;49.002;8.390;2023-02-15T13:11:03;20.37;;;15.53;;
1879;SDS011;49285;49.002;8.390;2023-02-15T13:13:55;23.50;;;16.23;;
1879;SDS011;49285;49.002;8.390;2023-02-15T13:18:56;23.03;;;16.27;;
1879;SDS011;49285;49.002;8.390;2023-02-15T13:21:23;24.73;;;17.20;;
1879;SDS011;49285;49.002;8.390;2023-02-15T13:23:54;22.60;;;16.30;;
1879;SDS011;49285;49.002;8.390;2023-02-15T13:26:30;23.40;;;16.40;;
1879;SDS011;49285;49.002;8.390;2023-02-15T13:28:58;21.60;;;15.60;;
1879;SDS011;49285;49.002;8.390;2023-02-15T13:31:33;24.53;;;17.60;;
1879;SDS011;49285;49.002;8.390;2023-02-15T13:34:01;24.13;;;17.50;;
1879;SDS011;49285;49.002;8.390;2023-02-15T13:45:07;25.77;;;18.70;;
1879;SDS011;49285;49.002;8.390;2023-02-15T13:48:08;26.47;;;18.93;;
1879;SDS011;49285;49.002;8.390;2023-02-15T13:56:58;32.93;;;20.13;;
1879;SDS011;49285;49.002;8.390;2023-02-15T13:59:46;25.17;;;18.87;;
1879;SDS011;49285;49.002;8.390;2023-02-15T14:07:56;25.87;;;20.13;;
1879;SDS011;49285;49.002;8.390;2023-02-15T14:10:51;25.70;;;19.40;;
1879;SDS011;49285;49.002;8.390;2023-02-15T14:16:35;26.50;;;19.50;;
1879;SDS011;49285;49.002;8.390;2023-02-15T14:32:33;32.80;;;20.00;;
1879;SDS011;49285;49.002;8.390;2023-02-15T14:35:14;35.10;;;21.83;;
1879;SDS011;49285;49.002;8.390;2023-02-15T14:37:52;31.40;;;20.63;;
1879;SDS011;49285;49.002;8.390;2023-02-15T14:43:45;30.73;;;22.00;;
1879;SDS011;49285;49.002;8.390;2023-02-15T14:46:21;36.37;;;22.60;;
1879;SDS011;49285;49.002;8.390;2023-02-15T14:54:07;35.20;;;22.90;;
1879;SDS011;49285;49.002;8.390;2023-02-15T14:56:34;30.50;;;20.37;;
1879;SDS011;49285;49.002;8.390;2023-02-15T15:04:44;32.03;;;21.13;;
1879;SDS011;49285;49.002;8.390;2023-02-15T15:12:48;31.13;;;20.80;;
1879;SDS011;49285;49.002;8.390;2023-02-15T15:17:56;33.33;;;22.30;;
1879;SDS011;49285;49.002;8.390;2023-02-15T15:22:51;31.67;;;21.97;;
1879;SDS011;49285;49.002;8.390;2023-02-15T15:25:40;33.63;;;22.07;;
1879;SDS011;49285;49.002;8.390;2023-02-15T15:31:07;34.73;;;22.20;;
1879;SDS011;49285;49.002;8.390;2023-02-15T15:44:59;36.90;;;23.03;;
1879;SDS011;49285;49.002;8.390;2023-02-15T15:47:54;30.30;;;20.70;;
1879;SDS011;49285;49.002;8.390;2023-02-15T15:50:33;33.00;;;22.43;;
1879;SDS011;49285;49.002;8.390;2023-02-15T15:53:00;34.60;;;21.93;;
1879;SDS011;49285;49.002;8.390;2023-02-15T15:55:28;36.60;;;21.60;;
1879;SDS011;49285;49.002;8.390;2023-02-15T15:57:56;38.60;;;22.90;;
1879;SDS011;49285;49.002;8.390;2023-02-15T16:00:30;30.63;;;21.20;;
1879;SDS011;49285;49.002;8.390;2023-02-15T16:02:57;35.20;;;23.57;;
1879;SDS011;49285;49.002;8.390;2023-02-15T16:05:22;37.77;;;22.57;;
1879;SDS011;49285;49.002;8.390;2023-02-15T16:07:48;39.40;;;21.73;;
1879;SDS011;49285;49.002;8.390;2023-02-15T16:10:25;36.77;;;21.73;;
1879;SDS011;49285;49.002;8.390;2023-02-15T16:12:52;35.33;;;22.53;;
1879;SDS011;49285;49.002;8.390;2023-02-15T16:15:20;34.63;;;21.80;;
1879;SDS011;49285;49.002;8.390;2023-02-15T16:17:52;36.07;;;22.53;;
1879;SDS011;49285;49.002;8.390;2023-02-15T16:20:24;32.60;;;22.27;;
1879;SDS011;49285;49.002;8.390;2023-02-15T16:23:08;33.27;;;21.57;;
1879;SDS011;49285;49.002;8.390;2023-02-15T16:28:37;44.90;;;26.77;;
1879;SDS011;49285;49.002;8.390;2023-02-15T16:31:14;39.33;;;24.47;;
1879;SDS011;49285;49.002;8.390;2023-02-15T16:33:41;36.30;;;22.43;;
1879;SDS011;49285;49.002;8.390;2023-02-15T16:36:20;35.43;;;23.77;;
1879;SDS011;49285;49.002;8.390;2023-02-15T16:41:16;37.97;;;22.33;;
1879;SDS011;49285;49.002;8.390;2023-02-15T16:43:47;37.43;;;21.93;;
1879;SDS011;49285;49.002;8.390;2023-02-15T16:46:33;41.23;;;24.70;;
1879;SDS011;49285;49.002;8.390;2023-02-15T16:49:16;35.97;;;22.33;;
1879;SDS011;49285;49.002;8.390;2023-02-15T16:51:44;36.70;;;21.60;;
1879;SDS011;49285;49.002;8.390;2023-02-15T16:54:19;37.90;;;23.70;;
1879;SDS011;49285;49.002;8.390;2023-02-15T16:56:46;38.43;;;23.47;;
1879;SDS011;49285;49.002;8.390;2023-02-15T16:59:32;36.30;;;22.20;;
1879;SDS011;49285;49.002;8.390;2023-02-15T17:02:03;37.23;;;23.50;;
1879;SDS011;49285;49.002;8.390;2023-02-15T17:04:31;35.27;;;22.70;;
1879;SDS011;49285;49.002;8.390;2023-02-15T17:09:40;38.20;;;23.73;;
1879;SDS011;49285;49.002;8.390;2023-02-15T17:12:35;37.43;;;22.90;;
1879;SDS011;49285;49.002;8.390;2023-02-15T17:15:30;39.70;;;22.40;;
1879;SDS011;49285;49.002;8.390;2023-02-15T17:17:58;43.87;;;23.70;;
1879;SDS011;49285;49.002;8.390;2023-02-15T17:20:27;39.03;;;23.83;;
1879;SDS011;49285;49.002;8.390;2023-02-15T17:22:53;40.07;;;24.10;;
1879;SDS011;49285;49.002;8.390;2023-02-15T17:25:20;37.00;;;23.77;;
1879;SDS011;49285;49.002;8.390;2023-02-15T17:27:53;40.63;;;23.73;;
1879;SDS011;49285;49.002;8.390;2023-02-15T17:30:26;36.43;;;23.67;;
1879;SDS011;49285;49.002;8.390;2023-02-15T17:32:57;38.73;;;23.33;;
1879;SDS011;49285;49.002;8.390;2023-02-15T17:35:26;35.80;;;22.43;;
1879;SDS011;49285;49.002;8.390;2023-02-15T17:38:00;41.80;;;23.83;;
1879;SDS011;49285;49.002;8.390;2023-02-15T17:40:29;32.50;;;22.07;;
1879;SDS011;49285;49.002;8.390;2023-02-15T17:42:57;41.50;;;23.77;;
1879;SDS011;49285;49.002;8.390;2023-02-15T17:45:25;39.17;;;23.00;;
1879;SDS011;49285;49.002;8.390;2023-02-15T17:47:55;38.67;;;23.10;;
1879;SDS011;49285;49.002;8.390;2023-02-15T17:50:24;35.63;;;21.57;;
1879;SDS011;49285;49.002;8.390;2023-02-15T17:52:51;42.20;;;25.17;;
1879;SDS011;49285;49.002;8.390;2023-02-15T17:55:19;34.80;;;22.83;;
1879;SDS011;49285;49.002;8.390;2023-02-15T17:57:59;38.77;;;23.57;;
1879;SDS011;49285;49.002;8.390;2023-02-15T18:00:26;32.63;;;21.43;;
1879;SDS011;49285;49.002;8.390;2023-02-15T18:03:11;34.13;;;21.90;;
1879;SDS011;49285;49.002;8.390;2023-02-15T18:05:56;34.17;;;22.20;;
1879;SDS011;49285;49.002;8.390;2023-02-15T18:08:41;36.70;;;22.47;;
1879;SDS011;49285;49.002;8.390;2023-02-15T18:11:25;33.30;;;21.60;;
1879;SDS011;49285;49.002;8.390;2023-02-15T18:14:00;35.10;;;21.60;;
1879;SDS011;49285;49.002;8.390;2023-02-15T18:16:28;34.67;;;22.37;;
1879;SDS011;49285;49.002;8.390;2023-02-15T18:18:55;30.63;;;21.23;;